.
WxDataArchive / Data Records for 2011-06-29
2011-06-28 June 2011 2011-06-30

Data Records for Wednesday, 29 June 2011

Time	Temp	Chill	HIndex	Humid	Dewpt	 Wind 	HiWind	WindDir	Rain 	Barom 
-----	----	-----	------	-----	-----	------	------	-------	-----	----- 
00:00	60.5	60.5	60.5	80	54.3	0	0	---	0.00	30.021 
00:05	60.4	60.4	60.4	81	54.5	0	0	---	0.00	30.021 
00:10	60.2	60.2	60.2	81	54.3	0	0	---	0.00	30.021 
00:15	59.9	59.9	59.9	82	54.4	0	0	---	0.00	30.020 
00:20	59.8	59.8	59.8	82	54.3	0	0	---	0.00	30.020 
00:25	59.6	59.6	59.6	83	54.4	0	0	---	0.00	30.020 
00:30	59.5	59.5	59.5	83	54.3	0	0	---	0.00	30.018 
00:35	59.3	59.3	59.3	84	54.5	0	0	---	0.00	30.018 
00:40	59.2	59.2	59.2	84	54.4	0	0	---	0.00	30.018 
00:45	59.0	59.0	59.0	84	54.2	0	0	---	0.00	30.022 
00:50	58.9	58.9	58.9	84	54.1	0	0	---	0.00	30.022 
00:55	58.9	58.9	58.9	85	54.4	0	0	---	0.00	30.022 
01:00	58.7	58.7	58.7	85	54.2	0	0	---	0.00	30.023 
01:05	58.6	58.6	58.6	86	54.4	0	0	---	0.00	30.023 
01:10	58.4	58.4	58.4	86	54.2	0	0	---	0.00	30.023 
01:15	58.3	58.3	58.3	86	54.1	0	0	---	0.00	30.023 
01:20	58.3	58.3	58.3	87	54.4	0	0	---	0.00	30.023 
01:25	58.1	58.1	58.1	87	54.2	0	0	---	0.00	30.023 
01:30	58.0	58.0	58.0	87	54.1	0	0	---	0.00	30.023 
01:35	58.0	58.0	58.0	87	54.1	0	0	---	0.00	30.023 
01:40	57.8	57.8	57.8	87	54.0	0	0	---	0.00	30.023 
01:45	57.6	57.6	57.6	88	54.1	0	0	---	0.00	30.023 
01:50	57.5	57.5	57.5	88	54.0	0	0	---	0.00	30.023 
01:55	57.5	57.5	57.5	88	54.0	0	0	---	0.00	30.023 
02:00	57.3	57.3	57.3	88	53.8	0	0	---	0.00	30.030 
02:05	57.3	57.3	57.3	88	53.8	0	0	---	0.00	30.030 
02:10	57.2	57.2	57.2	88	53.7	0	0	---	0.00	30.030 
02:15	57.2	57.2	57.2	89	54.0	0	0	---	0.00	30.032 
02:20	57.0	57.0	57.0	89	53.8	0	0	---	0.00	30.032 
02:25	57.0	57.0	57.0	89	53.8	0	0	---	0.00	30.032 
02:30	57.0	57.0	57.0	90	54.1	0	0	---	0.00	30.032 
02:35	56.9	56.9	56.9	90	54.0	0	0	---	0.00	30.032 
02:40	56.9	56.9	56.9	90	54.0	0	0	---	0.00	30.032 
02:45	56.9	56.9	56.9	90	54.0	0	0	---	0.00	30.035 
02:50	56.7	56.7	56.7	90	53.8	0	0	---	0.00	30.035 
02:55	56.7	56.7	56.7	90	53.8	0	0	---	0.00	30.035 
03:00	56.6	56.6	56.6	90	53.7	0	0	---	0.00	30.036 
03:05	56.6	56.6	56.6	90	53.7	0	0	---	0.00	30.036 
03:10	56.6	56.6	56.6	91	54.0	0	0	---	0.00	30.036 
03:15	56.5	56.5	56.5	91	53.9	0	0	---	0.00	30.036 
03:20	56.5	56.5	56.5	91	53.9	0	0	---	0.00	30.036 
03:25	56.5	56.5	56.5	91	53.9	0	0	---	0.00	30.036 
03:30	56.5	56.5	56.5	91	53.9	0	0	---	0.00	30.039 
03:35	56.5	56.5	56.5	91	53.9	0	0	---	0.00	30.039 
03:40	56.6	56.6	56.6	91	54.0	0	0	---	0.00	30.039 
03:45	56.6	56.6	56.6	91	54.0	0	0	---	0.00	30.039 
03:50	56.7	56.7	56.7	91	54.1	0	0	---	0.00	30.039 
03:55	56.9	56.9	56.9	92	54.6	0	0	---	0.00	30.039 
04:00	57.0	57.0	57.0	91	54.4	0	0	---	0.00	30.040 
04:05	57.2	57.2	57.2	91	54.6	0	0	---	0.00	30.040 
04:10	57.2	57.2	57.2	91	54.6	0	0	---	0.00	30.040 
04:15	57.2	57.2	57.2	91	54.6	0	0	---	0.00	30.047 
04:20	57.2	57.2	57.2	91	54.6	0	0	---	0.00	30.047 
04:25	57.2	57.2	57.2	91	54.6	0	0	---	0.00	30.047 
04:30	57.3	57.3	57.3	91	54.7	0	0	---	0.00	30.053 
04:35	57.3	57.3	57.3	91	54.7	0	0	---	0.00	30.053 
04:40	57.3	57.3	57.3	91	54.7	0	0	---	0.00	30.053 
04:45	57.3	57.3	57.3	91	54.7	0	0	---	0.00	30.056 
04:50	57.3	57.3	57.3	91	54.7	0	0	---	0.00	30.056 
04:55	57.2	57.2	57.2	91	54.6	0	0	---	0.00	30.056 
05:00	57.2	57.2	57.2	91	54.6	0	0	---	0.00	30.056 
05:05	57.2	57.2	57.2	91	54.6	0	0	---	0.00	30.056 
05:10	57.0	57.0	57.0	91	54.4	0	0	---	0.00	30.056 
05:15	57.2	57.2	57.2	91	54.6	0	0	---	0.00	30.061 
05:20	57.2	57.2	57.2	91	54.6	0	0	---	0.00	30.061 
05:25	57.2	57.2	57.2	91	54.6	0	0	---	0.00	30.061 
05:30	57.2	57.2	57.2	91	54.6	0	0	---	0.00	30.064 
05:35	57.0	57.0	57.0	91	54.4	0	0	---	0.00	30.064 
05:40	57.0	57.0	57.0	92	54.7	0	0	---	0.00	30.064 
05:45	57.2	57.2	57.2	92	54.9	0	0	---	0.00	30.071 
05:50	57.2	57.2	57.2	92	54.9	0	0	---	0.00	30.071 
05:55	57.2	57.2	57.2	92	54.9	0	0	---	0.00	30.071 
06:00	57.2	57.2	57.2	92	54.9	0	0	---	0.00	30.072 
06:05	57.0	57.0	57.0	92	54.7	0	0	---	0.00	30.072 
06:10	57.0	57.0	57.0	92	54.7	0	0	---	0.00	30.072 
06:15	57.0	57.0	57.0	92	54.7	0	0	---	0.00	30.077 
06:20	56.9	56.9	56.9	92	54.6	0	0	---	0.00	30.077 
06:25	56.9	56.9	56.9	92	54.6	0	0	---	0.00	30.077 
06:30	56.9	56.9	56.9	92	54.6	0	0	---	0.00	30.080 
06:35	56.9	56.9	56.9	92	54.6	0	0	---	0.00	30.080 
06:40	57.0	57.0	57.0	92	54.7	0	0	---	0.00	30.080 
06:45	57.0	57.0	57.0	92	54.7	0	0	---	0.00	30.084 
06:50	57.2	57.2	57.2	92	54.9	0	0	---	0.00	30.084 
06:55	57.2	57.2	57.2	92	54.9	0	0	---	0.00	30.084 
07:00	57.2	57.2	57.2	92	54.9	0	0	---	0.00	30.088 
07:05	57.3	57.3	57.3	92	55.0	0	0	---	0.00	30.088 
07:10	57.6	57.6	57.6	92	55.3	0	0	---	0.00	30.088 
07:15	58.1	58.1	58.1	92	55.8	0	0	---	0.00	30.092 
07:20	58.4	58.4	58.4	91	55.8	0	0	---	0.00	30.092 
07:25	58.9	58.9	58.9	91	56.3	0	0	---	0.00	30.092 
07:30	59.2	59.2	59.2	90	56.3	0	0	---	0.00	30.093 
07:35	59.5	59.5	59.5	90	56.6	0	0	---	0.00	30.093 
07:40	59.9	59.9	59.9	89	56.6	0	0	---	0.00	30.093 
07:45	60.2	60.2	60.2	88	56.6	0	0	---	0.00	30.095 
07:50	60.7	60.7	60.7	87	56.8	0	0	---	0.00	30.095 
07:55	61.0	61.0	61.0	86	56.8	0	0	---	0.00	30.095 
08:00	61.5	61.5	61.5	84	56.6	0	1	338	0.00	30.099 
08:05	62.0	62.0	62.0	82	56.4	0	1	315	0.00	30.099 
08:10	62.6	62.6	62.6	81	56.7	0	0	---	0.00	30.099 
08:15	63.2	63.2	63.2	79	56.6	1	3	315	0.00	30.102 
08:20	63.9	63.9	63.9	77	56.5	1	3	315	0.00	30.102 
08:25	64.5	64.5	64.5	76	56.8	1	3	315	0.00	30.102 
08:30	65.0	65.0	65.0	74	56.5	2	3	315	0.00	30.107 
08:35	65.6	65.6	65.6	73	56.7	1	4	315	0.00	30.107 
08:40	66.0	66.0	66.0	71	56.3	2	4	292	0.00	30.107 
08:45	66.4	66.4	66.4	71	56.7	1	3	292	0.00	30.113 
08:50	66.9	66.9	66.9	69	56.4	1	3	292	0.00	30.113 
08:55	67.4	67.4	67.4	69	56.9	1	3	270	0.00	30.113 
09:00	68.1	68.1	68.1	68	57.1	1	3	270	0.00	30.115 
09:05	68.3	68.3	68.3	65	56.1	2	4	270	0.00	30.115 
09:10	68.4	68.4	68.4	64	55.7	2	5	270	0.00	30.115 
09:15	68.6	68.6	68.6	64	55.9	2	4	270	0.00	30.118 
09:20	68.8	68.8	68.8	64	56.1	1	4	270	0.00	30.118 
09:25	69.1	69.1	69.1	63	56.0	1	3	270	0.00	30.118 
09:30	69.4	69.4	69.4	62	55.8	2	4	270	0.00	30.117 
09:35	69.8	69.8	69.8	62	56.2	1	4	270	0.00	30.117 
09:40	70.3	70.3	70.3	62	56.7	1	3	248	0.00	30.117 
09:45	70.4	70.4	70.4	62	56.7	1	3	270	0.00	30.117 
09:50	70.8	70.8	70.8	59	55.7	2	4	292	0.00	30.117 
09:55	71.1	71.1	71.1	61	57.0	2	3	292	0.00	30.117 
10:00	71.5	71.5	71.5	58	55.9	2	4	292	0.00	30.116 
10:05	72.0	72.0	72.0	59	56.9	1	3	292	0.00	30.116 
10:10	72.3	72.3	72.3	57	56.2	2	4	292	0.00	30.116 
10:15	72.3	72.3	72.3	57	56.2	2	3	292	0.00	30.118 
10:20	72.7	72.7	72.7	56	56.1	2	4	292	0.00	30.118 
10:25	73.0	73.0	73.0	56	56.4	2	4	292	0.00	30.118 
10:30	73.0	73.0	73.0	55	55.9	2	5	270	0.00	30.117 
10:35	73.3	73.3	73.3	57	57.1	2	5	270	0.00	30.117 
10:40	73.9	73.9	73.9	54	56.2	1	4	270	0.00	30.117 
10:45	74.4	74.4	74.4	55	57.2	1	3	270	0.00	30.117 
10:50	74.4	74.4	74.4	52	55.6	2	5	292	0.00	30.117 
10:55	74.2	74.2	74.2	51	54.9	2	4	292	0.00	30.117 
11:00	74.6	74.6	74.6	51	55.3	2	4	315	0.00	30.119 
11:05	74.6	74.6	74.6	52	55.8	2	6	270	0.00	30.119 
11:10	74.7	74.7	74.7	51	55.4	1	3	270	0.00	30.119 
11:15	75.1	75.1	77.7	50	55.2	2	4	270	0.00	30.127 
11:20	75.1	75.1	77.7	50	55.2	1	4	270	0.00	30.127 
11:25	75.4	75.4	77.8	50	55.4	2	6	315	0.00	30.127 
11:30	75.3	75.3	77.7	50	55.4	2	5	270	0.00	30.128 
11:35	74.9	74.9	74.9	49	54.4	2	5	292	0.00	30.128 
11:40	74.9	74.9	74.9	48	53.9	2	4	315	0.00	30.128 
11:45	75.3	75.3	77.7	48	54.2	1	6	270	0.00	30.129 
11:50	75.8	75.8	78.0	48	54.7	1	3	315	0.00	30.129 
11:55	76.3	76.3	78.1	45	53.4	2	5	0	0.00	30.129 
12:00	76.8	76.8	78.3	45	53.8	1	4	0	0.00	30.123 
12:05	77.2	77.2	78.5	45	54.2	1	3	0	0.00	30.123 
12:10	76.0	76.0	78.0	45	53.1	2	6	0	0.00	30.123 
12:15	76.0	76.0	78.0	47	54.3	2	6	270	0.00	30.120 
12:20	76.8	76.8	78.4	46	54.4	1	2	338	0.00	30.120 
12:25	77.4	77.4	78.6	43	53.1	1	4	338	0.00	30.120 
12:30	77.0	77.0	78.5	47	55.2	2	6	292	0.00	30.117 
12:35	76.7	76.7	78.3	44	53.1	3	6	292	0.00	30.117 
12:40	77.0	77.0	78.4	44	53.4	2	6	270	0.00	30.117 
12:45	76.8	76.8	78.4	47	55.0	1	5	270	0.00	30.116 
12:50	77.2	77.2	78.5	44	53.6	1	3	0	0.00	30.116 
12:55	77.9	77.9	78.9	44	54.2	0	3	68	0.00	30.116 
13:00	77.6	77.6	78.7	43	53.3	1	3	68	0.00	30.108 
13:05	76.7	76.7	78.3	44	53.1	2	6	270	0.00	30.108 
13:10	76.7	76.7	78.3	45	53.7	1	4	270	0.00	30.108 
13:15	77.4	77.4	78.6	44	53.8	1	3	270	0.00	30.105 
13:20	77.4	77.4	78.6	44	53.8	1	4	315	0.00	30.105 
13:25	77.7	77.7	78.7	42	52.8	1	4	315	0.00	30.105 
13:30	78.3	78.3	79.2	45	55.2	1	4	338	0.00	30.102 
13:35	78.5	78.5	79.2	44	54.7	1	4	270	0.00	30.102 
13:40	77.9	77.9	78.8	43	53.6	1	5	315	0.00	30.102 
13:45	78.1	78.1	78.9	43	53.8	1	4	292	0.00	30.099 
13:50	77.6	77.6	78.6	41	52.0	3	7	270	0.00	30.099 
13:55	77.4	77.4	78.6	43	53.1	1	3	270	0.00	30.099 
14:00	77.7	77.7	78.7	43	53.4	2	6	270	0.00	30.092 
14:05	78.1	78.1	79.1	46	55.6	1	4	292	0.00	30.092 
14:10	78.8	78.8	79.2	40	52.4	1	3	292	0.00	30.092 
14:15	78.6	78.6	79.0	40	52.2	1	3	315	0.00	30.084 
14:20	79.2	79.2	79.6	43	54.7	0	2	315	0.00	30.084 
14:25	79.4	79.4	79.5	39	52.3	1	3	315	0.00	30.084 
14:30	79.4	79.4	79.6	41	53.6	1	3	315	0.00	30.081 
14:35	79.4	79.4	79.6	41	53.6	1	3	315	0.00	30.081 
14:40	79.8	79.8	80.2	45	56.5	1	2	315	0.00	30.081 
14:45	80.1	80.1	80.2	42	54.9	1	4	315	0.00	30.077 
14:50	80.5	80.5	80.5	42	55.3	0	2	315	0.00	30.077 
14:55	80.5	80.5	80.4	41	54.6	1	4	315	0.00	30.077 
15:00	80.5	80.5	80.4	41	54.6	1	3	315	0.00	30.073 
15:05	80.7	80.7	80.4	40	54.1	1	4	315	0.00	30.073 
15:10	80.9	80.9	80.7	41	55.0	1	4	112	0.00	30.073 
15:15	80.9	80.9	80.6	40	54.3	1	3	68	0.00	30.067 
15:20	80.7	80.7	80.7	43	56.1	1	4	270	0.00	30.067 
15:25	80.7	80.7	80.3	39	53.4	2	4	270	0.00	30.067 
15:30	81.1	81.1	80.6	39	53.8	0	1	292	0.00	30.065 
15:35	81.2	81.2	80.8	40	54.6	0	2	292	0.00	30.065 
15:40	81.2	81.2	80.7	39	53.9	1	3	270	0.00	30.065 
15:45	81.2	81.2	80.7	39	53.9	1	3	292	0.00	30.059 
15:50	81.1	81.1	80.4	37	52.3	2	4	292	0.00	30.059 
15:55	80.9	80.9	80.5	39	53.6	1	3	315	0.00	30.059 
16:00	81.1	81.1	80.4	36	51.6	1	4	315	0.00	30.057 
16:05	81.1	81.1	80.4	37	52.3	0	2	45	0.00	30.057 
16:10	81.1	81.1	80.4	37	52.3	2	9	270	0.00	30.057 
16:15	80.9	80.9	80.4	38	52.9	1	3	270	0.00	30.053 
16:20	81.1	81.1	80.5	38	53.1	2	4	270	0.00	30.053 
16:25	81.4	81.4	80.9	39	54.0	1	3	315	0.00	30.053 
16:30	81.4	81.4	80.8	38	53.3	1	3	315	0.00	30.053 
16:35	81.4	81.4	80.8	38	53.3	0	1	315	0.00	30.053 
16:40	81.4	81.4	80.8	38	53.3	1	3	315	0.00	30.053 
16:45	81.6	81.6	81.0	39	54.2	1	3	315	0.00	30.052 
16:50	81.8	81.8	81.1	38	53.7	1	3	22	0.00	30.052 
16:55	81.8	81.8	81.1	38	53.7	1	3	338	0.00	30.052 
17:00	81.6	81.6	80.9	38	53.5	1	2	338	0.00	30.054 
17:05	81.8	81.8	81.2	39	54.4	0	2	338	0.00	30.054 
17:10	82.4	82.4	81.6	38	54.2	1	2	338	0.00	30.054 
17:15	82.2	82.2	81.4	38	54.0	1	5	270	0.00	30.052 
17:20	82.2	82.2	81.5	39	54.7	1	4	270	0.00	30.052 
17:25	82.0	82.0	81.2	38	53.9	1	3	270	0.00	30.052 
17:30	81.8	81.8	81.1	38	53.7	0	3	270	0.00	30.051 
17:35	82.0	82.0	81.2	38	53.9	0	2	270	0.00	30.051 
17:40	82.0	82.0	81.2	38	53.9	1	3	270	0.00	30.051 
17:45	81.6	81.6	81.0	39	54.2	1	4	292	0.00	30.046 
17:50	81.2	81.2	80.7	39	53.9	1	2	0	0.00	30.046 
17:55	81.2	81.2	80.7	39	53.9	0	1	338	0.00	30.046 
18:00	81.2	81.2	80.6	38	53.1	0	2	338	0.00	30.039 
18:05	81.1	81.1	80.7	40	54.5	1	3	112	0.00	30.039 
18:10	80.9	80.9	80.6	40	54.3	1	3	112	0.00	30.039 
18:15	80.7	80.7	80.3	39	53.4	0	3	112	0.00	30.037 
18:20	80.5	80.5	80.2	39	53.2	0	2	112	0.00	30.037 
18:25	80.5	80.5	80.2	39	53.2	1	4	292	0.00	30.037 
18:30	80.3	80.3	80.1	40	53.8	0	1	292	0.00	30.037 
18:35	80.1	80.1	79.9	39	52.9	0	1	292	0.00	30.037 
18:40	80.1	80.1	79.9	39	52.9	0	2	292	0.00	30.037 
18:45	80.3	80.3	80.1	39	53.1	0	1	292	0.00	30.038 
18:50	80.1	80.1	80.1	41	54.2	0	2	292	0.00	30.038 
18:55	80.1	80.1	80.1	41	54.2	0	1	292	0.00	30.038 
19:00	80.1	80.1	80.1	41	54.2	0	1	292	0.00	30.038 
19:05	80.1	80.1	80.0	40	53.6	0	1	292	0.00	30.038 
19:10	79.9	79.9	79.9	40	53.4	0	2	292	0.00	30.038 
19:15	79.8	79.8	79.9	41	54.0	0	2	292	0.00	30.032 
19:20	79.8	79.8	80.0	42	54.6	0	1	292	0.00	30.032 
19:25	79.8	79.8	79.8	40	53.3	0	1	292	0.00	30.032 
19:30	79.8	79.8	80.0	42	54.6	0	0	---	0.00	30.033 
19:35	79.6	79.6	79.9	43	55.1	0	1	292	0.00	30.033 
19:40	79.4	79.4	79.8	43	54.9	0	1	292	0.00	30.033 
19:45	79.4	79.4	79.8	43	54.9	0	2	292	0.00	30.034 
19:50	79.2	79.2	79.6	43	54.7	0	0	---	0.00	30.034 
19:55	79.0	79.0	79.5	43	54.6	0	2	292	0.00	30.034 
20:00	78.8	78.8	79.4	43	54.4	0	1	292	0.00	30.037 
20:05	78.8	78.8	79.4	43	54.4	0	1	292	0.00	30.037 
20:10	78.6	78.6	79.3	44	54.8	0	0	---	0.00	30.037 
20:15	78.3	78.3	79.1	44	54.6	0	1	292	0.00	30.030 
20:20	78.1	78.1	79.0	45	55.0	0	0	---	0.00	30.030 
20:25	77.9	77.9	78.9	45	54.8	0	1	292	0.00	30.030 
20:30	77.6	77.6	78.8	46	55.2	0	0	---	0.00	30.030 
20:35	77.4	77.4	78.7	46	55.0	0	0	---	0.00	30.030 
20:40	77.0	77.0	78.5	46	54.6	0	0	---	0.00	30.030 
20:45	76.7	76.7	78.4	47	54.9	0	0	---	0.00	30.031 
20:50	76.3	76.3	78.2	48	55.1	0	0	---	0.00	30.031 
20:55	76.1	76.1	78.1	48	55.0	0	0	---	0.00	30.031 
21:00	75.6	75.6	77.9	49	55.1	0	0	---	0.00	30.028 
21:05	75.3	75.3	77.7	50	55.4	0	0	---	0.00	30.028 
21:10	74.7	74.7	74.7	50	54.8	0	0	---	0.00	30.028 
21:15	74.4	74.4	74.4	51	55.1	0	0	---	0.00	30.022 
21:20	73.9	73.9	73.9	53	55.7	0	0	---	0.00	30.022 
21:25	73.5	73.5	73.5	54	55.8	0	0	---	0.00	30.022 
21:30	73.0	73.0	73.0	55	55.9	0	0	---	0.00	30.027 
21:35	72.5	72.5	72.5	56	55.9	0	0	---	0.00	30.027 
21:40	72.1	72.1	72.1	57	56.0	0	0	---	0.00	30.027 
21:45	71.6	71.6	71.6	58	56.0	0	0	---	0.00	30.030 
21:50	71.3	71.3	71.3	60	56.7	0	0	---	0.00	30.030 
21:55	70.8	70.8	70.8	61	56.7	0	0	---	0.00	30.030 
22:00	70.4	70.4	70.4	62	56.7	0	0	---	0.00	30.032 
22:05	70.1	70.1	70.1	62	56.5	0	0	---	0.00	30.032 
22:10	69.8	69.8	69.8	63	56.6	0	0	---	0.00	30.032 
22:15	69.4	69.4	69.4	65	57.1	0	0	---	0.00	30.031 
22:20	69.1	69.1	69.1	65	56.8	0	0	---	0.00	30.031 
22:25	68.8	68.8	68.8	66	57.0	0	0	---	0.00	30.031 
22:30	68.4	68.4	68.4	67	57.0	0	0	---	0.00	30.031 
22:35	68.3	68.3	68.3	68	57.3	0	0	---	0.00	30.031 
22:40	67.9	67.9	67.9	69	57.3	0	0	---	0.00	30.031 
22:45	67.6	67.6	67.6	69	57.1	0	0	---	0.00	30.032 
22:50	67.4	67.4	67.4	69	56.9	0	0	---	0.00	30.032 
22:55	67.1	67.1	67.1	70	57.0	0	0	---	0.00	30.032 
23:00	66.9	66.9	66.9	71	57.2	0	0	---	0.00	30.032 
23:05	66.6	66.6	66.6	72	57.3	0	0	---	0.00	30.032 
23:10	66.4	66.4	66.4	72	57.1	0	0	---	0.00	30.032 
23:15	66.1	66.1	66.1	73	57.2	0	0	---	0.00	30.033 
23:20	66.0	66.0	66.0	73	57.1	0	0	---	0.00	30.033 
23:25	65.8	65.8	65.8	74	57.3	0	0	---	0.00	30.033 
23:30	65.6	65.6	65.6	74	57.1	0	0	---	0.00	30.032 
23:35	65.3	65.3	65.3	75	57.2	0	0	---	0.00	30.032 
23:40	65.2	65.2	65.2	75	57.1	0	0	---	0.00	30.032 
23:45	65.0	65.0	65.0	76	57.2	0	0	---	0.00	30.033 
23:50	64.8	64.8	64.8	77	57.4	0	0	---	0.00	30.033 
23:55	64.5	64.5	64.5	77	57.1	0	0	---	0.00	30.033 

CoCoRaHS
IN-AL-39
A2 Web Hosting
Creative Commons License
GoDaddy
search engine by freefind advanced

loaded 2018-11-14 03:35:38 • last modified 2010-11-18 10:43:29
Privacy PolicyDisclaimer
• wx.awcolley.com is powered by PmWiki v.2002016 •
• all content (unless otherwise noted) © 2018 A W Colley